Time;durP1;ratioP1;P1;durP2;ratioP2;P2;SDS_P1;SDS_P2;PMS_P1;PMS_P2;Temp;Humidity;BMP_temperature;BMP_pressure;BME280_temperature;BME280_humidity;BME280_pressure;Samples;Min_cycle;Max_cycle;Signal;HPM_P1;HPM_P2
2023/10/15 00:01:44;;;;;;;6.43;0.50;;;8.30;99.90;;;;;;5028152;28;20456;-70
2023/10/15 00:04:12;;;;;;;8.93;1.05;;;8.30;99.90;;;;;;5027259;28;20149;-72
2023/10/15 00:06:38;;;;;;;2.85;0.43;;;8.30;99.90;;;;;;5028878;28;20033;-70
2023/10/15 00:09:04;;;;;;;2.47;0.30;;;8.30;99.90;;;;;;5030333;28;20029;-71
2023/10/15 00:11:30;;;;;;;3.50;0.20;;;8.30;99.90;;;;;;5031783;28;20048;-72
2023/10/15 00:13:55;;;;;;;3.45;0.50;;;8.30;99.90;;;;;;5049980;28;20032;-70
2023/10/15 00:16:22;;;;;;;2.22;0.30;;;8.30;99.90;;;;;;5032024;28;20044;-70
2023/10/15 00:18:48;;;;;;;4.00;0.50;;;8.30;99.90;;;;;;5032247;28;20032;-71
2023/10/15 00:21:14;;;;;;;5.05;0.63;;;8.30;99.90;;;;;;5051239;28;20740;-70
2023/10/15 00:23:42;;;;;;;8.82;0.60;;;8.20;99.90;;;;;;5033010;28;20037;-71
2023/10/15 00:26:10;;;;;;;2.00;0.32;;;8.20;99.90;;;;;;5040300;28;20036;-71
2023/10/15 00:28:36;;;;;;;1.85;0.30;;;8.20;99.90;;;;;;5049038;28;20033;-70
2023/10/15 00:31:08;;;;;;;8.45;0.88;;;8.20;99.90;;;;;;5030444;28;20045;-72
2023/10/15 00:33:33;;;;;;;1.08;0.25;;;8.20;99.90;;;;;;5030599;28;20583;-71
2023/10/15 00:35:59;;;;;;;3.20;0.45;;;8.20;99.90;;;;;;5048436;28;20041;-72
2023/10/15 00:38:25;;;;;;;8.63;0.70;;;8.20;99.90;;;;;;5049286;28;20036;-71
2023/10/15 00:41:00;;;;;;;1.83;0.32;;;8.20;99.90;;;;;;5031318;28;20490;-72
2023/10/15 00:43:26;;;;;;;3.38;0.60;;;8.10;99.90;;;;;;5030847;28;20072;-72
2023/10/15 00:45:52;;;;;;;1.55;0.35;;;8.20;99.90;;;;;;5030932;28;20347;-71
2023/10/15 00:48:24;;;;;;;7.20;0.38;;;8.20;99.90;;;;;;5031239;28;20044;-73
2023/10/15 00:50:51;;;;;;;2.35;0.30;;;8.20;99.90;;;;;;5031516;28;20115;-70
2023/10/15 00:53:24;;;;;;;5.25;0.40;;;8.20;99.90;;;;;;5031097;28;20037;-71
2023/10/15 00:56:03;;;;;;;4.60;0.28;;;8.20;99.90;;;;;;5031140;28;20043;-71
2023/10/15 00:58:33;;;;;;;3.45;0.65;;;8.20;99.90;;;;;;5049425;28;20420;-71
2023/10/15 01:03:50;;;;;;;3.17;0.73;;;8.30;99.90;;;;;;5046299;28;20033;-70
2023/10/15 01:06:30;;;;;;;2.70;0.73;;;8.30;99.90;;;;;;5031103;28;20091;-71
2023/10/15 01:09:08;;;;;;;5.20;1.27;;;8.30;99.90;;;;;;5031717;28;20536;-70
2023/10/15 01:11:37;;;;;;;1.30;0.20;;;8.40;99.90;;;;;;5051365;28;20052;-73
2023/10/15 01:14:02;;;;;;;2.55;0.30;;;8.40;99.90;;;;;;5032003;28;20037;-71
2023/10/15 01:16:34;;;;;;;0.43;0.20;;;8.40;99.90;;;;;;5030444;28;20040;-70
2023/10/15 01:24:18;;;;;;;0.90;0.25;;;8.30;99.90;;;;;;5045397;28;20040;-71
2023/10/15 01:26:51;;;;;;;1.48;0.40;;;8.30;99.90;;;;;;5048593;28;20029;-71
2023/10/15 01:29:21;;;;;;;3.22;0.30;;;8.30;99.90;;;;;;5029914;28;20033;-71
2023/10/15 01:31:58;;;;;;;4.53;0.20;;;8.30;99.90;;;;;;5029811;28;20098;-74
2023/10/15 01:34:27;;;;;;;2.75;0.13;;;8.20;99.90;;;;;;5047260;28;20032;-69
2023/10/15 01:37:02;;;;;;;1.73;0.35;;;8.20;99.90;;;;;;5030079;28;20079;-72
2023/10/15 01:39:37;;;;;;;3.05;0.25;;;8.20;99.90;;;;;;5047524;28;20036;-70
2023/10/15 01:42:06;;;;;;;3.30;0.10;;;8.20;99.90;;;;;;5029764;28;20036;-72
2023/10/15 01:44:33;;;;;;;1.48;0.25;;;8.20;99.90;;;;;;5030785;28;20037;-71
2023/10/15 01:49:33;;;;;;;2.25;0.10;;;8.20;99.90;;;;;;5048353;28;20115;-71
2023/10/15 01:52:09;;;;;;;3.75;0.20;;;8.30;99.90;;;;;;5047393;28;20037;-72
2023/10/15 01:54:35;;;;;;;0.73;0.20;;;8.30;99.90;;;;;;5044165;28;20037;-69
2023/10/15 01:57:09;;;;;;;1.10;0.05;;;8.30;99.90;;;;;;5030122;28;20053;-72
2023/10/15 01:59:47;;;;;;;1.60;0.30;;;8.30;99.90;;;;;;5044499;28;20037;-70
2023/10/15 02:02:18;;;;;;;2.08;0.20;;;8.30;99.90;;;;;;5028389;28;20470;-70
2023/10/15 02:04:47;;;;;;;5.32;0.93;;;8.30;99.90;;;;;;5032313;28;20028;-71
2023/10/15 02:07:17;;;;;;;0.50;0.10;;;8.20;99.90;;;;;;5029641;28;20029;-71
2023/10/15 02:09:44;;;;;;;2.22;0.20;;;8.20;99.90;;;;;;5030817;28;20055;-71
2023/10/15 02:12:20;;;;;;;0.40;0.10;;;8.20;99.90;;;;;;5029276;28;20029;-69
2023/10/15 02:14:48;;;;;;;0.52;0.20;;;8.10;99.90;;;;;;5026345;28;20022;-69
2023/10/15 02:17:18;;;;;;;1.77;0.10;;;8.10;99.90;;;;;;5027956;28;20120;-71
2023/10/15 02:19:44;;;;;;;1.55;0.20;;;8.10;99.90;;;;;;5029542;28;20033;-71
2023/10/15 02:22:12;;;;;;;0.88;0.35;;;8.10;99.90;;;;;;5028349;28;20029;-70
2023/10/15 02:24:38;;;;;;;4.40;0.20;;;8.10;99.90;;;;;;5029742;28;20033;-69
2023/10/15 02:27:05;;;;;;;1.55;0.20;;;8.00;99.90;;;;;;5047292;28;20079;-71
2023/10/15 02:32:21;;;;;;;2.17;0.10;;;7.90;99.90;;;;;;5045842;28;20060;-70
2023/10/15 02:34:50;;;;;;;2.20;0.28;;;7.90;99.90;;;;;;5027706;28;20569;-70
2023/10/15 02:37:26;;;;;;;0.60;0.17;;;7.90;99.90;;;;;;5028959;28;20036;-70
2023/10/15 02:39:52;;;;;;;1.75;0.10;;;7.90;99.90;;;;;;5029116;28;20116;-71
2023/10/15 02:42:19;;;;;;;1.27;0.20;;;7.90;99.90;;;;;;5047020;28;20602;-71
2023/10/15 02:44:50;;;;;;;2.70;1.08;;;7.90;99.90;;;;;;5030364;28;20440;-71
2023/10/15 02:47:28;;;;;;;2.55;0.30;;;7.90;99.90;;;;;;5028852;28;20501;-70
2023/10/15 02:50:00;;;;;;;2.20;0.35;;;7.80;99.90;;;;;;5047044;28;20477;-71
2023/10/15 02:52:35;;;;;;;4.45;0.47;;;7.80;99.90;;;;;;5048569;28;20083;-70
2023/10/15 02:55:08;;;;;;;1.92;0.20;;;7.70;99.90;;;;;;5027796;28;20500;-71
2023/10/15 02:57:39;;;;;;;1.38;0.10;;;7.70;99.90;;;;;;5042914;28;20226;-72
2023/10/15 03:00:14;;;;;;;3.40;0.50;;;7.70;99.90;;;;;;5046277;28;20040;-70
2023/10/15 03:02:49;;;;;;;2.58;0.25;;;7.70;99.90;;;;;;5046427;28;20033;-71
2023/10/15 03:05:15;;;;;;;4.13;0.10;;;7.80;99.90;;;;;;5027969;28;20033;-72
2023/10/15 03:07:44;;;;;;;1.48;0.22;;;7.80;99.90;;;;;;5028924;28;20048;-70
2023/10/15 03:10:21;;;;;;;3.83;0.28;;;7.90;99.90;;;;;;5030093;28;20028;-71
2023/10/15 03:12:47;;;;;;;5.32;0.22;;;7.90;99.90;;;;;;5054893;28;20033;-71
2023/10/15 03:15:14;;;;;;;1.95;0.20;;;7.90;99.90;;;;;;5030202;28;20117;-70
2023/10/15 03:17:43;;;;;;;4.95;0.20;;;7.90;99.90;;;;;;5050493;28;20025;-71
2023/10/15 03:22:46;;;;;;;10.10;0.32;;;8.00;99.90;;;;;;5046925;28;20037;-70
2023/10/15 03:25:15;;;;;;;1.20;0.40;;;8.00;99.90;;;;;;5045738;28;20048;-72
2023/10/15 03:27:54;;;;;;;1.25;0.10;;;8.00;99.90;;;;;;5046455;28;20068;-71
2023/10/15 03:30:23;;;;;;;0.80;0.20;;;8.00;99.90;;;;;;5045887;28;20037;-71
2023/10/15 03:32:52;;;;;;;3.00;0.50;;;8.00;99.90;;;;;;5046456;28;20528;-72
2023/10/15 03:35:32;;;;;;;0.73;0.00;;;8.00;99.90;;;;;;5046809;28;20131;-70
2023/10/15 03:38:03;;;;;;;2.55;0.32;;;8.00;99.90;;;;;;5028488;28;20103;-71
2023/10/15 03:40:49;;;;;;;2.15;0.10;;;7.90;99.90;;;;;;5035180;28;20481;-70
2023/10/15 03:43:15;;;;;;;0.52;0.00;;;7.90;99.90;;;;;;5031889;28;20029;-70
2023/10/15 03:45:53;;;;;;;2.60;0.20;;;7.70;99.90;;;;;;5054985;28;20467;-71
2023/10/15 03:48:28;;;;;;;1.65;0.43;;;7.60;99.90;;;;;;5032886;28;20501;-70
2023/10/15 03:50:54;;;;;;;1.13;0.17;;;7.60;99.90;;;;;;5031804;28;20064;-71
2023/10/15 03:53:31;;;;;;;4.30;0.30;;;7.50;99.90;;;;;;5031327;28;20091;-71
2023/10/15 03:55:58;;;;;;;3.35;0.10;;;7.60;99.90;;;;;;5045753;28;20045;-72
2023/10/15 03:58:25;;;;;;;1.08;0.00;;;7.60;99.90;;;;;;5058360;28;20040;-71
2023/10/15 04:00:56;;;;;;;0.30;0.00;;;7.60;99.90;;;;;;5052629;28;20037;-71
2023/10/15 04:03:35;;;;;;;4.07;0.20;;;7.60;99.90;;;;;;5031509;28;20083;-72
2023/10/15 04:06:01;;;;;;;0.45;0.10;;;7.60;99.90;;;;;;5046410;28;20397;-70
2023/10/15 04:08:32;;;;;;;1.40;0.20;;;7.60;99.90;;;;;;5050046;28;20037;-71
2023/10/15 04:10:58;;;;;;;2.17;0.32;;;7.60;99.90;;;;;;5028012;28;20045;-71
2023/10/15 04:13:27;;;;;;;3.90;0.20;;;7.50;99.90;;;;;;5031439;28;20424;-72
2023/10/15 04:15:54;;;;;;;2.97;0.35;;;7.50;99.90;;;;;;5031903;28;20098;-70
2023/10/15 04:18:24;;;;;;;2.72;0.03;;;7.50;99.90;;;;;;5031478;28;20057;-70
2023/10/15 04:20:52;;;;;;;2.70;0.20;;;7.40;99.90;;;;;;5049951;28;20059;-71
2023/10/15 04:23:54;;;;;;;1.08;0.22;;;7.40;99.90;;;;;;5049592;28;20041;-71
2023/10/15 04:26:11;;;;;;;3.88;0.30;;;7.40;99.90;;;;;;5044314;28;20116;-71
2023/10/15 04:28:37;;;;;;;2.88;0.30;;;7.40;99.90;;;;;;5050299;28;20041;-71
2023/10/15 04:31:21;;;;;;;3.50;0.30;;;7.30;99.90;;;;;;5031108;28;20040;-70
2023/10/15 04:33:50;;;;;;;0.35;0.00;;;7.30;99.90;;;;;;5032307;28;20040;-70
2023/10/15 04:36:16;;;;;;;3.35;0.30;;;7.20;99.90;;;;;;5033976;28;20036;-70
2023/10/15 04:38:42;;;;;;;1.05;0.20;;;7.10;99.90;;;;;;5033378;28;20443;-70
2023/10/15 04:41:10;;;;;;;1.23;0.30;;;7.10;99.90;;;;;;5029954;28;20041;-71
2023/10/15 04:43:46;;;;;;;2.22;0.10;;;7.10;99.90;;;;;;5049148;28;20060;-71
2023/10/15 04:46:19;;;;;;;6.03;0.57;;;7.00;99.90;;;;;;5047966;28;20079;-72
2023/10/15 04:48:46;;;;;;;0.95;0.15;;;7.00;99.90;;;;;;5030950;28;20116;-71
2023/10/15 04:51:13;;;;;;;0.63;0.10;;;7.00;99.90;;;;;;5029963;28;20036;-72
2023/10/15 04:53:48;;;;;;;1.25;0.20;;;7.00;99.90;;;;;;5030061;28;20114;-71
2023/10/15 04:56:13;;;;;;;3.15;0.17;;;6.90;99.90;;;;;;5030175;28;20386;-71
2023/10/15 04:58:39;;;;;;;4.93;0.20;;;6.90;99.90;;;;;;5049222;28;20124;-71
2023/10/15 05:01:07;;;;;;;1.27;0.05;;;6.90;99.90;;;;;;5047980;28;20065;-71
2023/10/15 05:03:34;;;;;;;1.08;0.25;;;6.80;99.90;;;;;;5030268;28;20037;-72
2023/10/15 05:06:11;;;;;;;2.47;0.47;;;6.90;99.90;;;;;;5030354;28;20089;-71
2023/10/15 05:08:40;;;;;;;0.80;0.35;;;6.90;99.90;;;;;;5030929;28;20047;-72
2023/10/15 05:11:10;;;;;;;0.77;0.10;;;6.90;99.90;;;;;;5030542;28;20041;-72
2023/10/15 05:13:35;;;;;;;1.63;0.60;;;7.00;99.90;;;;;;5028662;28;20037;-70
2023/10/15 05:16:02;;;;;;;1.63;0.20;;;7.10;99.90;;;;;;5030697;28;20577;-70
2023/10/15 05:18:29;;;;;;;2.75;0.10;;;7.10;99.90;;;;;;5048825;28;20517;-71
2023/10/15 05:20:55;;;;;;;1.83;0.30;;;7.20;99.90;;;;;;5030660;28;20064;-71
2023/10/15 05:23:22;;;;;;;3.25;0.20;;;7.20;99.90;;;;;;5026633;28;20115;-70
2023/10/15 05:25:49;;;;;;;0.60;0.05;;;7.20;99.90;;;;;;5049887;28;20132;-72
2023/10/15 05:28:15;;;;;;;1.60;0.20;;;7.20;99.90;;;;;;5031921;28;20072;-70
2023/10/15 05:30:41;;;;;;;1.30;0.20;;;7.10;99.90;;;;;;5030925;28;20056;-72
2023/10/15 05:33:07;;;;;;;5.15;0.30;;;7.10;99.90;;;;;;5029312;28;20037;-74
2023/10/15 05:35:40;;;;;;;2.65;0.40;;;7.20;99.90;;;;;;5048171;28;20040;-71
2023/10/15 05:38:09;;;;;;;2.90;0.15;;;7.10;99.90;;;;;;5029774;28;20033;-71
2023/10/15 05:40:36;;;;;;;1.40;0.20;;;7.10;99.90;;;;;;5030235;28;20033;-72
2023/10/15 05:43:02;;;;;;;1.05;0.28;;;7.20;99.90;;;;;;5047745;28;20033;-71
2023/10/15 05:45:27;;;;;;;3.42;0.38;;;7.20;99.90;;;;;;5047928;28;20145;-71
2023/10/15 05:47:53;;;;;;;3.97;0.43;;;7.20;99.90;;;;;;5047366;28;20127;-72
2023/10/15 05:50:18;;;;;;;4.55;0.43;;;7.30;99.90;;;;;;5030159;28;20120;-71
2023/10/15 05:52:45;;;;;;;2.92;0.20;;;7.40;99.90;;;;;;5029927;28;20056;-71
2023/10/15 05:55:11;;;;;;;0.65;0.20;;;7.40;99.90;;;;;;5047231;28;20033;-71
2023/10/15 05:57:37;;;;;;;1.27;0.10;;;7.40;99.90;;;;;;5030119;28;20036;-71
2023/10/15 06:00:19;;;;;;;3.83;0.25;;;7.40;99.90;;;;;;5047329;28;20085;-71
2023/10/15 06:02:50;;;;;;;1.60;0.10;;;7.50;99.90;;;;;;5029471;28;20037;-71
2023/10/15 06:05:16;;;;;;;2.15;0.75;;;7.50;99.90;;;;;;5029142;28;20029;-70
2023/10/15 06:07:42;;;;;;;2.40;0.60;;;7.50;99.90;;;;;;5047730;28;20037;-70
2023/10/15 06:10:09;;;;;;;2.00;0.38;;;7.50;99.90;;;;;;5047215;28;20036;-71
2023/10/15 06:12:35;;;;;;;2.65;0.82;;;7.50;99.90;;;;;;5030385;28;20037;-71
2023/10/15 06:15:00;;;;;;;6.60;1.65;;;7.50;99.90;;;;;;5030366;28;20152;-69
2023/10/15 06:17:26;;;;;;;1.85;0.30;;;7.50;99.90;;;;;;5029840;28;20092;-70
2023/10/15 06:19:52;;;;;;;0.88;0.20;;;7.50;99.90;;;;;;5029334;28;20021;-70
2023/10/15 06:22:18;;;;;;;1.92;0.22;;;7.50;99.90;;;;;;5028496;28;20394;-70
2023/10/15 06:24:46;;;;;;;2.20;0.45;;;7.50;99.90;;;;;;5047627;28;20033;-71
2023/10/15 06:27:18;;;;;;;4.07;0.30;;;7.60;99.90;;;;;;5028552;28;20067;-70
2023/10/15 06:29:44;;;;;;;1.55;0.68;;;7.50;99.90;;;;;;5028781;28;20052;-71
2023/10/15 06:32:10;;;;;;;3.75;0.80;;;7.50;99.90;;;;;;5028226;28;20164;-71
2023/10/15 06:34:39;;;;;;;3.13;0.30;;;7.50;99.90;;;;;;5047610;28;20397;-70
2023/10/15 06:37:08;;;;;;;0.75;0.00;;;7.50;99.90;;;;;;5046280;28;20041;-71
2023/10/15 06:39:34;;;;;;;2.05;0.40;;;7.60;99.90;;;;;;5047049;28;20460;-71
2023/10/15 06:42:00;;;;;;;4.32;0.90;;;7.60;99.90;;;;;;5028260;28;20126;-70
2023/10/15 06:44:26;;;;;;;5.55;0.50;;;7.60;99.90;;;;;;5029047;28;20031;-70
2023/10/15 06:46:51;;;;;;;3.28;0.40;;;7.60;99.90;;;;;;5046748;28;20120;-71
2023/10/15 06:49:18;;;;;;;1.83;0.30;;;7.60;99.90;;;;;;5029102;28;20033;-70
2023/10/15 06:51:44;;;;;;;4.22;0.40;;;7.70;99.90;;;;;;5029330;28;20037;-71
2023/10/15 06:54:11;;;;;;;1.65;0.40;;;7.70;99.90;;;;;;5028665;28;20138;-71
2023/10/15 06:56:37;;;;;;;4.80;0.40;;;7.70;99.90;;;;;;5025237;28;20038;-71
2023/10/15 06:59:03;;;;;;;1.05;0.35;;;7.70;99.90;;;;;;5042871;28;20090;-70
2023/10/15 07:01:30;;;;;;;4.25;0.40;;;7.70;99.90;;;;;;5047134;28;20040;-70
2023/10/15 07:03:56;;;;;;;2.75;0.38;;;7.70;99.90;;;;;;5029543;28;20029;-71
2023/10/15 07:06:22;;;;;;;6.65;0.82;;;7.80;99.90;;;;;;5029607;28;20382;-71
2023/10/15 07:08:49;;;;;;;5.35;0.55;;;7.80;99.90;;;;;;5034384;28;20036;-70
2023/10/15 07:11:15;;;;;;;9.82;1.15;;;7.80;99.90;;;;;;5034287;28;20168;-71
2023/10/15 07:13:40;;;;;;;5.47;0.50;;;7.80;99.90;;;;;;5047306;28;20029;-71
2023/10/15 07:16:06;;;;;;;4.50;0.75;;;7.80;99.90;;;;;;5027918;28;20504;-70
2023/10/15 07:18:33;;;;;;;6.50;0.55;;;7.70;99.90;;;;;;5034067;28;20073;-70
2023/10/15 07:20:59;;;;;;;2.38;0.20;;;7.60;99.90;;;;;;5034719;28;20037;-71
2023/10/15 07:23:25;;;;;;;1.13;0.30;;;7.60;99.90;;;;;;5052671;28;20044;-70
2023/10/15 07:25:51;;;;;;;4.60;0.38;;;7.50;99.90;;;;;;5034898;28;20131;-73
2023/10/15 07:28:16;;;;;;;3.10;0.35;;;7.50;99.90;;;;;;5057278;28;20469;-71
2023/10/15 07:30:42;;;;;;;2.15;0.30;;;7.50;99.90;;;;;;5040629;28;20035;-72
2023/10/15 07:33:08;;;;;;;5.82;0.20;;;7.60;99.90;;;;;;5033684;28;20500;-74
2023/10/15 07:35:35;;;;;;;1.20;0.43;;;7.70;99.90;;;;;;5053277;28;20037;-71
2023/10/15 07:38:02;;;;;;;2.05;0.38;;;7.90;99.90;;;;;;5053467;28;20111;-71
2023/10/15 07:40:27;;;;;;;5.63;0.25;;;8.10;99.90;;;;;;5033243;28;22382;-72
2023/10/15 07:42:58;;;;;;;3.78;0.30;;;8.20;99.90;;;;;;5049946;28;20029;-71
2023/10/15 07:45:28;;;;;;;4.72;0.50;;;8.30;99.90;;;;;;5034688;28;20044;-71
2023/10/15 07:47:54;;;;;;;4.20;0.40;;;8.30;99.90;;;;;;5033207;28;20047;-71
2023/10/15 07:50:23;;;;;;;4.75;0.65;;;8.30;99.90;;;;;;5034296;28;20131;-71
2023/10/15 07:52:50;;;;;;;3.42;0.38;;;8.30;99.90;;;;;;5052106;28;20052;-71
2023/10/15 07:55:16;;;;;;;4.43;0.28;;;8.20;99.90;;;;;;5037378;28;20051;-71
2023/10/15 07:57:42;;;;;;;2.53;0.40;;;8.30;99.90;;;;;;5035516;28;20025;-70
2023/10/15 08:00:22;;;;;;;32.95;0.80;;;8.20;99.90;;;;;;5035462;28;20031;-72
2023/10/15 08:02:52;;;;;;;1.80;0.25;;;8.20;99.90;;;;;;5031787;28;20036;-71
2023/10/15 08:05:21;;;;;;;2.20;0.32;;;8.20;99.90;;;;;;5033864;28;20033;-71
2023/10/15 08:07:48;;;;;;;1.95;0.25;;;8.10;99.90;;;;;;5034499;28;20036;-71
2023/10/15 08:10:14;;;;;;;1.77;0.20;;;8.10;99.90;;;;;;5033324;28;20039;-71
2023/10/15 08:12:39;;;;;;;1.30;0.32;;;8.10;99.90;;;;;;5034564;28;20039;-70
2023/10/15 08:15:06;;;;;;;1.13;0.40;;;8.10;99.90;;;;;;5034046;28;20482;-72
2023/10/15 08:17:32;;;;;;;2.72;0.50;;;8.10;99.90;;;;;;5033686;28;20037;-71
2023/10/15 08:19:58;;;;;;;0.77;0.15;;;8.20;99.90;;;;;;5029688;28;20720;-70
2023/10/15 08:22:25;;;;;;;0.82;0.10;;;8.30;99.90;;;;;;5033546;28;20147;-73
2023/10/15 08:24:51;;;;;;;1.25;0.10;;;8.40;99.90;;;;;;5052101;28;20095;-73
2023/10/15 08:27:17;;;;;;;2.22;0.20;;;8.50;99.90;;;;;;5033450;28;20473;-73
2023/10/15 08:29:43;;;;;;;2.42;0.15;;;8.50;99.90;;;;;;5031539;28;20025;-71
2023/10/15 08:32:16;;;;;;;3.55;0.20;;;8.60;99.90;;;;;;5029404;28;20029;-73
2023/10/15 08:34:45;;;;;;;1.25;0.22;;;8.70;99.90;;;;;;5026986;28;20021;-71
2023/10/15 08:37:11;;;;;;;1.23;0.30;;;8.80;99.90;;;;;;5044068;28;20124;-71
2023/10/15 08:39:40;;;;;;;6.38;0.30;;;8.90;99.90;;;;;;5030650;28;20456;-71
2023/10/15 08:42:20;;;;;;;4.32;1.27;;;8.90;99.90;;;;;;5048287;28;20056;-71
2023/10/15 08:44:47;;;;;;;3.20;0.25;;;8.90;99.90;;;;;;5027362;28;20045;-72
2023/10/15 08:47:13;;;;;;;7.65;0.73;;;8.80;99.90;;;;;;5048150;28;20055;-70
2023/10/15 08:49:51;;;;;;;1.13;0.20;;;9.00;99.90;;;;;;5049077;28;20069;-71
2023/10/15 08:52:19;;;;;;;2.08;0.73;;;9.10;99.90;;;;;;5047146;28;20393;-71
2023/10/15 08:54:46;;;;;;;5.85;0.70;;;9.10;99.90;;;;;;5031878;28;20086;-71
2023/10/15 08:57:13;;;;;;;1.98;0.30;;;9.20;99.90;;;;;;5029452;28;20101;-72
2023/10/15 08:59:40;;;;;;;1.38;0.63;;;9.20;99.90;;;;;;5026118;28;20044;-72
2023/10/15 09:02:08;;;;;;;4.15;0.50;;;9.40;99.90;;;;;;5029563;28;20109;-71
2023/10/15 09:04:34;;;;;;;5.05;1.17;;;9.60;99.90;;;;;;5047689;28;20447;-71
2023/10/15 09:07:04;;;;;;;2.05;0.38;;;9.90;99.90;;;;;;5033648;28;20072;-73
2023/10/15 09:09:32;;;;;;;1.75;0.20;;;9.80;99.90;;;;;;5046909;28;20036;-71
2023/10/15 09:11:58;;;;;;;4.07;0.40;;;9.60;99.90;;;;;;5027523;28;20044;-71
2023/10/15 09:14:43;;;;;;;0.63;0.20;;;9.50;99.90;;;;;;5030183;28;20033;-71
2023/10/15 09:17:16;;;;;;;3.63;0.30;;;9.30;99.90;;;;;;5030478;28;20612;-73
2023/10/15 09:19:43;;;;;;;1.48;0.32;;;9.00;99.90;;;;;;5045840;28;20045;-71
2023/10/15 09:22:16;;;;;;;3.47;0.60;;;8.90;99.90;;;;;;5044645;28;20227;-72
2023/10/15 09:24:43;;;;;;;1.60;0.65;;;8.70;99.90;;;;;;5030990;28;20448;-71
2023/10/15 09:27:08;;;;;;;3.08;1.10;;;8.60;99.90;;;;;;5030791;28;20029;-70
2023/10/15 09:29:34;;;;;;;6.70;0.30;;;8.70;99.90;;;;;;5052890;28;20028;-72
2023/10/15 09:32:04;;;;;;;2.60;0.40;;;8.70;99.90;;;;;;5029700;28;20033;-72
2023/10/15 09:34:36;;;;;;;2.83;0.10;;;8.80;99.90;;;;;;5031304;28;20033;-71
2023/10/15 09:37:05;;;;;;;7.78;0.80;;;8.90;99.90;;;;;;5048321;28;20041;-72
2023/10/15 09:39:31;;;;;;;6.00;0.82;;;8.90;99.90;;;;;;5030586;28;20151;-72
2023/10/15 09:41:57;;;;;;;2.00;0.17;;;8.90;99.90;;;;;;5032337;28;20121;-71
2023/10/15 09:44:24;;;;;;;2.30;0.30;;;8.80;99.90;;;;;;5034234;28;20025;-72
2023/10/15 09:46:50;;;;;;;2.58;0.20;;;8.80;99.90;;;;;;5030600;28;20052;-71
2023/10/15 09:49:18;;;;;;;3.65;0.50;;;8.80;99.90;;;;;;5029491;28;20234;-72
2023/10/15 09:51:47;;;;;;;2.97;0.30;;;8.90;99.90;;;;;;5030594;28;20366;-72
2023/10/15 09:54:14;;;;;;;6.72;0.73;;;9.00;99.90;;;;;;5029495;28;20396;-72
2023/10/15 09:56:41;;;;;;;3.50;0.43;;;9.20;99.90;;;;;;5029873;28;20033;-72
2023/10/15 09:59:09;;;;;;;2.55;0.17;;;9.40;99.90;;;;;;5029770;28;20036;-72
2023/10/15 10:01:39;;;;;;;1.40;0.22;;;9.40;99.90;;;;;;5047605;28;20087;-73
2023/10/15 10:04:19;;;;;;;0.95;0.47;;;9.60;99.90;;;;;;5035438;28;20037;-71
2023/10/15 10:06:47;;;;;;;6.55;0.40;;;9.50;99.90;;;;;;5045135;28;20123;-72
2023/10/15 10:09:36;;;;;;;4.65;0.63;;;9.40;99.90;;;;;;5028721;28;20119;-72
2023/10/15 10:12:16;;;;;;;0.90;0.10;;;9.20;99.90;;;;;;5029421;28;20048;-72
2023/10/15 10:15:08;;;;;;;1.02;0.10;;;9.00;99.90;;;;;;5014597;28;20055;-72
2023/10/15 10:17:34;;;;;;;2.85;0.30;;;8.90;99.90;;;;;;5025521;28;20449;-72
2023/10/15 10:20:10;;;;;;;1.20;0.13;;;8.90;99.90;;;;;;5029529;28;20032;-72
2023/10/15 10:22:37;;;;;;;4.85;0.70;;;8.90;99.90;;;;;;5029921;28;20488;-72
2023/10/15 10:25:03;;;;;;;3.20;0.45;;;8.80;99.90;;;;;;5029537;28;20076;-73
2023/10/15 10:27:43;;;;;;;6.65;0.88;;;8.80;99.90;;;;;;5030964;28;20045;-71
2023/10/15 10:30:28;;;;;;;9.65;0.90;;;8.70;99.90;;;;;;5035223;28;20041;-72
2023/10/15 10:32:57;;;;;;;7.18;1.08;;;8.70;99.90;;;;;;5032125;28;20036;-72
2023/10/15 10:35:24;;;;;;;8.02;0.70;;;8.70;99.90;;;;;;5031391;28;20040;-73
2023/10/15 10:38:03;;;;;;;3.50;1.20;;;8.70;99.90;;;;;;5021494;28;20043;-72
2023/10/15 10:41:04;;;;;;;8.38;1.20;;;8.80;99.90;;;;;;5028313;28;20090;-72
2023/10/15 10:43:30;;;;;;;3.70;0.50;;;9.10;99.90;;;;;;5030677;28;20440;-73
2023/10/15 10:46:06;;;;;;;4.85;0.45;;;9.40;99.90;;;;;;5027498;28;20039;-73
2023/10/15 10:48:39;;;;;;;5.43;0.55;;;9.50;99.90;;;;;;5028412;28;20124;-72
2023/10/15 10:51:11;;;;;;;11.70;0.70;;;9.50;99.90;;;;;;5042849;28;20033;-72
2023/10/15 10:53:57;;;;;;;3.78;0.40;;;9.50;99.90;;;;;;5024657;28;20040;-72
2023/10/15 10:56:43;;;;;;;4.10;0.40;;;9.40;99.90;;;;;;5003275;28;20067;-72
2023/10/15 10:59:11;;;;;;;4.45;0.60;;;9.40;99.90;;;;;;5024882;28;20043;-73
2023/10/15 11:01:40;;;;;;;2.83;0.60;;;9.40;99.90;;;;;;5046968;28;20102;-72
2023/10/15 11:04:06;;;;;;;5.45;1.40;;;9.40;99.90;;;;;;5028075;28;20056;-71
2023/10/15 11:06:39;;;;;;;6.00;0.60;;;9.40;99.90;;;;;;5024465;28;20033;-71
2023/10/15 11:09:09;;;;;;;7.13;0.95;;;9.50;99.90;;;;;;5027674;28;20041;-71
2023/10/15 11:11:35;;;;;;;4.35;0.50;;;9.50;99.90;;;;;;5044850;28;20032;-73
2023/10/15 11:14:01;;;;;;;3.33;0.25;;;9.60;99.90;;;;;;5046592;28;20033;-72
2023/10/15 11:16:27;;;;;;;0.50;0.10;;;9.60;99.90;;;;;;5029009;28;20036;-72
2023/10/15 11:18:53;;;;;;;1.50;0.10;;;9.50;99.90;;;;;;5028455;28;20407;-72
2023/10/15 11:21:19;;;;;;;3.75;0.70;;;9.50;99.90;;;;;;5028662;28;20564;-71
2023/10/15 11:23:45;;;;;;;1.65;0.20;;;9.50;99.90;;;;;;5048032;28;20102;-70
2023/10/15 11:26:11;;;;;;;4.90;0.52;;;9.40;99.90;;;;;;5034217;28;20033;-72
2023/10/15 11:28:37;;;;;;;2.10;0.13;;;9.40;99.90;;;;;;5048915;28;20515;-72
2023/10/15 11:31:02;;;;;;;0.88;0.10;;;9.50;99.90;;;;;;5027720;28;20045;-73
2023/10/15 11:33:28;;;;;;;3.67;0.95;;;9.50;99.90;;;;;;5045500;28;20033;-73
2023/10/15 11:35:55;;;;;;;2.78;0.60;;;9.60;99.90;;;;;;5026884;28;20044;-71
2023/10/15 11:38:21;;;;;;;2.78;0.13;;;9.70;99.90;;;;;;5022087;28;21536;-72
2023/10/15 11:40:47;;;;;;;1.67;0.10;;;9.70;99.90;;;;;;5025725;28;20116;-71
2023/10/15 11:43:19;;;;;;;8.77;1.02;;;9.70;99.90;;;;;;5044264;28;20110;-72
2023/10/15 11:45:46;;;;;;;3.40;0.45;;;9.80;99.90;;;;;;5027509;28;20037;-71
2023/10/15 11:48:13;;;;;;;0.95;0.17;;;9.80;99.90;;;;;;5044340;28;20033;-71
2023/10/15 11:50:40;;;;;;;3.42;0.38;;;9.70;99.90;;;;;;5027835;28;20033;-71
2023/10/15 11:53:23;;;;;;;3.08;0.30;;;9.60;99.90;;;;;;5045071;28;20136;-71
2023/10/15 11:55:53;;;;;;;3.08;0.40;;;9.60;99.90;;;;;;5027647;28;20040;-72
2023/10/15 11:58:20;;;;;;;1.77;0.50;;;9.60;99.90;;;;;;5023238;28;20025;-71
2023/10/15 12:00:48;;;;;;;4.15;0.75;;;9.60;99.90;;;;;;5045838;28;20294;-72
2023/10/15 12:03:16;;;;;;;4.07;0.45;;;9.60;99.90;;;;;;5044086;28;20083;-72
2023/10/15 12:05:42;;;;;;;3.85;0.20;;;9.50;99.90;;;;;;5031642;28;20029;-71
2023/10/15 12:08:12;;;;;;;4.70;0.40;;;9.50;99.90;;;;;;5048510;28;20033;-72
2023/10/15 12:10:42;;;;;;;0.40;0.10;;;9.60;99.90;;;;;;5031987;28;20098;-71
2023/10/15 12:13:09;;;;;;;4.88;0.95;;;9.70;99.90;;;;;;5031259;28;20040;-71
2023/10/15 12:15:34;;;;;;;3.83;0.35;;;9.90;99.90;;;;;;5035122;28;20048;-71
2023/10/15 12:18:02;;;;;;;5.18;0.40;;;10.00;99.90;;;;;;5052479;28;20169;-71
2023/10/15 12:20:28;;;;;;;2.83;0.32;;;10.00;99.90;;;;;;5041897;28;20028;-72
2023/10/15 12:22:54;;;;;;;2.38;0.22;;;10.00;99.90;;;;;;5031105;28;20033;-72
2023/10/15 12:25:20;;;;;;;4.07;0.20;;;10.00;99.90;;;;;;5031743;28;20138;-72
2023/10/15 12:27:46;;;;;;;1.30;0.43;;;10.00;99.90;;;;;;5032114;28;20441;-71
2023/10/15 12:30:19;;;;;;;2.78;0.70;;;10.10;99.90;;;;;;5049178;28;20086;-72
2023/10/15 12:32:45;;;;;;;1.33;0.35;;;10.20;99.90;;;;;;5032024;28;20056;-70
2023/10/15 12:35:11;;;;;;;2.15;0.63;;;10.20;99.90;;;;;;5031168;28;20071;-71
2023/10/15 12:37:38;;;;;;;2.55;0.43;;;10.30;99.90;;;;;;5031393;28;20025;-72
2023/10/15 12:40:12;;;;;;;3.45;0.20;;;10.50;99.90;;;;;;5028716;28;20038;-71
2023/10/15 12:42:39;;;;;;;3.22;1.38;;;10.50;99.90;;;;;;5023274;28;20041;-72
2023/10/15 12:45:09;;;;;;;4.63;1.25;;;10.50;99.90;;;;;;5026484;28;20044;-72
2023/10/15 12:47:36;;;;;;;;;;;10.50;99.90;;;;;;5049938;28;20053;-71
2023/10/15 12:50:03;;;;;;;4.47;0.70;;;10.40;99.90;;;;;;5048256;28;19917;-72
2023/10/15 12:52:29;;;;;;;4.35;0.20;;;10.40;99.90;;;;;;5048711;28;20037;-71
2023/10/15 12:54:54;;;;;;;2.78;0.50;;;10.40;99.90;;;;;;5030209;28;20709;-71
2023/10/15 12:57:22;;;;;;;6.32;0.30;;;10.30;99.90;;;;;;5030765;28;20076;-71
2023/10/15 12:59:48;;;;;;;4.72;0.40;;;10.20;99.90;;;;;;5030949;28;20086;-71
2023/10/15 13:02:13;;;;;;;1.48;0.20;;;10.20;99.90;;;;;;5028022;28;20032;-72
2023/10/15 13:04:39;;;;;;;1.73;0.22;;;10.20;99.90;;;;;;5047497;28;20037;-72
2023/10/15 13:07:05;;;;;;;3.85;0.47;;;10.20;99.90;;;;;;5032220;28;20036;-72
2023/10/15 13:09:32;;;;;;;1.10;0.20;;;10.10;99.90;;;;;;5047908;28;20033;-71
2023/10/15 13:11:58;;;;;;;6.00;0.30;;;10.10;99.90;;;;;;5047396;28;20037;-72
2023/10/15 13:14:24;;;;;;;1.88;0.45;;;10.00;99.90;;;;;;5047399;28;20124;-71
2023/10/15 13:16:50;;;;;;;2.80;0.30;;;10.00;99.90;;;;;;5029265;28;20128;-72
2023/10/15 13:19:16;;;;;;;0.68;0.10;;;10.00;99.90;;;;;;5028836;28;20037;-72
2023/10/15 13:21:42;;;;;;;1.75;0.65;;;10.00;99.90;;;;;;5043402;28;20512;-71